• Join FlightAware (Why Join?)
  • Login
  • US Flag 
01:30PM EDT


 

Airport Tracker/Info


-or-


 

Live Flight TrackerFlight Track Log ✈ GUJ334 ✈ 22-Apr-2013 ✈ VIDP / DEL - VABB / BOM

Flight Track Log - Related Links

Times and Time Zones

All times are in EDT time to prevent confusion due to time zone crossing. See the GUJ334 flight status page for this flight to view local times or setup timezone preferences in your user account.

Time Position Orientation Groundspeed Altitude Reporting Facility
EDT Latitude Longitude Course Direction KTS MPH feet Rate Location/Type
10:55PM 26.8665 76.2906 203° Southwest  Level Estimated
10:56PM 26.7892 76.2542 203° Southwest  Level Estimated
10:57PM 26.7118 76.2180 203° Southwest  Level Estimated
10:58PM 26.6344 76.1817 203° Southwest  Level Estimated
10:59PM 26.5570 76.1455 203° Southwest  Level Estimated
11:00PM 26.4795 76.1094 203° Southwest  Level Estimated
11:01PM 26.4021 76.0733 203° Southwest  Level Estimated
11:02PM 26.3247 76.0372 203° Southwest  Level Estimated
11:03PM 26.2472 76.0012 203° Southwest  Level Estimated
11:04PM 26.1698 75.9653 203° Southwest  Level Estimated
11:05PM 26.0923 75.9294 203° Southwest  Level Estimated
11:06PM 26.0148 75.8935 203° Southwest  Level Estimated
11:07PM 25.9374 75.8577 203° Southwest  Level Estimated
11:08PM 25.8599 75.8220 203° Southwest  Level Estimated
11:09PM 25.7824 75.7862 203° Southwest  Level Estimated
11:10PM 25.7049 75.7506 203° Southwest  Level Estimated
11:11PM 25.6273 75.7150 203° Southwest  Level Estimated
11:12PM 25.5498 75.6794 202° Southwest  Level Estimated
11:13PM 25.4723 75.6439 202° Southwest  Level Estimated
11:14PM 25.3948 75.6084 202° Southwest  Level Estimated
11:15PM 25.3172 75.5729 202° Southwest  Level Estimated
11:16PM 25.2396 75.5376 202° Southwest  Level Estimated
11:17PM 25.1621 75.5022 202° Southwest  Level Estimated
11:18PM 25.0845 75.4669 202° Southwest  Level Estimated
11:19PM 25.0069 75.4316 202° Southwest  Level Estimated
11:20PM 24.9293 75.3964 202° Southwest  Level Estimated
11:21PM 24.8517 75.3613 202° Southwest  Level Estimated
11:22PM 24.7741 75.3261 202° Southwest  Level Estimated
11:23PM 24.6965 75.2911 202° Southwest  Level Estimated
11:24PM 24.6189 75.2560 202° Southwest  Level Estimated
11:25PM 24.5412 75.2210 202° Southwest  Level Estimated
11:26PM 24.4636 75.1861 202° Southwest  Level Estimated
11:27PM 24.3860 75.1512 202° Southwest  Level Estimated
11:28PM 24.3083 75.1163 202° Southwest  Level Estimated
11:29PM 24.2306 75.0815 202° Southwest  Level Estimated
11:30PM 24.1530 75.0467 202° Southwest  Level Estimated
11:31PM 24.0753 75.0120 202° Southwest  Level Estimated
11:32PM 23.9976 74.9773 202° Southwest  Level Estimated
11:33PM 23.9199 74.9426 202° Southwest  Level Estimated
11:34PM 23.8422 74.9080 202° Southwest  Level Estimated
11:35PM 23.7645 74.8735 202° Southwest  Level Estimated
11:36PM 23.6868 74.8389 202° Southwest  Level Estimated
11:37PM 23.6090 74.8044 202° Southwest  Level Estimated
11:38PM 23.5313 74.7700 202° Southwest  Level Estimated
11:39PM 23.4536 74.7356 202° Southwest  Level Estimated
11:40PM 23.3758 74.7012 202° Southwest  Level Estimated
11:41PM 23.2980 74.6669 202° Southwest  Level Estimated
11:42PM 23.2203 74.6326 202° Southwest  Level Estimated
11:43PM 23.1425 74.5984 202° Southwest  Level Estimated
11:44PM 23.0647 74.5641 202° Southwest  Level Estimated
11:45PM 22.9869 74.5300 202° Southwest  Level Estimated
11:46PM 22.9092 74.4958 202° Southwest  Level Estimated
11:47PM 22.8314 74.4617 202° Southwest  Level Estimated
11:48PM 22.7535 74.4277 202° Southwest  Level Estimated
11:49PM 22.6757 74.3937 202° Southwest  Level Estimated
11:50PM 22.5979 74.3597 202° Southwest  Level Estimated
11:51PM 22.5201 74.3258 202° Southwest  Level Estimated
11:52PM 22.4422 74.2919 202° Southwest  Level Estimated
11:53PM 22.3644 74.2580 202° Southwest  Level Estimated
11:54PM 22.2866 74.2242 202° Southwest  Level Estimated
11:55PM 22.2087 74.1904 202° Southwest  Level Estimated
11:56PM 22.1308 74.1567 202° Southwest  Level Estimated
11:57PM 22.0529 74.1230 202° Southwest  Level Estimated
11:58PM 21.9751 74.0893 202° Southwest  Level Estimated
11:59PM 21.8972 74.0557 202° Southwest  Level Estimated
12:00AM 21.8193 74.0221 202° Southwest  Level Estimated
12:01AM 21.7414 73.9885 202° Southwest  Level Estimated
12:02AM 21.6635 73.9550 202° Southwest  Level Estimated
12:03AM 21.5856 73.9215 202° Southwest  Level Estimated
12:04AM 21.5077 73.8881 202° Southwest  Level Estimated
12:05AM 21.4297 73.8547 202° Southwest  Level Estimated
12:06AM 21.3518 73.8213 202° Southwest  Level Estimated
12:07AM 21.2738 73.7879 202° Southwest  Level Estimated
12:08AM 21.1959 73.7546 202° Southwest  Level Estimated
12:09AM 21.1180 73.7214 202° Southwest  Level Estimated
12:10AM 21.0400 73.6881 202° Southwest  Level Estimated
12:11AM 20.9620 73.6549 202° Southwest  Level Estimated
12:12AM 20.8841 73.6217 202° Southwest  Level Estimated
12:13AM 20.8061 73.5886 202° Southwest  Level Estimated
12:14AM 20.7281 73.5555 202° Southwest  Level Estimated
12:15AM 20.6501 73.5225 202° Southwest  Level Estimated
12:16AM 20.5721 73.4894 202° Southwest  Level Estimated
12:17AM 20.4941 73.4564 202° Southwest  Level Estimated
12:18AM 20.4161 73.4235 202° Southwest  Level Estimated
12:19AM 20.3381 73.3905 202° Southwest  Level Estimated
12:20AM 20.2600 73.3576 202° Southwest  Level Estimated
12:21AM 20.1820 73.3248 202° Southwest  Level Estimated
12:22AM 20.1040 73.2919 202° Southwest  Level Estimated
12:23AM 20.0259 73.2591 202° Southwest  Level Estimated
12:24AM 19.9479 73.2264 202° Southwest  Level Estimated
12:25AM 19.8698 73.1936 202° Southwest  Level Estimated
12:26AM 19.7918 73.1609 202° Southwest  Level Estimated
12:27AM 19.7137 73.1283 202° Southwest  Level Estimated
12:28AM 19.6357 73.0956 201° Southwest  Level Estimated
12:29AM 19.5576 73.0630 201° Southwest  Level Estimated
12:30AM 19.4795 73.0304 201° Southwest  Level Estimated